Time;durP1;ratioP1;P1;durP2;ratioP2;P2;SDS_P1;SDS_P2;PMS_P1;PMS_P2;Temp;Humidity;BMP_temperature;BMP_pressure;BME280_temperature;BME280_humidity;BME280_pressure;Samples;Min_cycle;Max_cycle;Signal;HPM_P1;HPM_P2
2024/01/08 00:00:38;;;;;;;10.57;2.45;;;;;;;;;;6246132;22;20095;-77
2024/01/08 00:03:05;;;;;;;7.80;2.28;;;;;;;;;;6245673;22;20008;-76
2024/01/08 00:05:31;;;;;;;6.25;2.75;;;;;;;;;;6246248;22;20020;-77
2024/01/08 00:07:58;;;;;;;5.95;2.00;;;;;;;;;;6246096;22;20381;-77
2024/01/08 00:10:25;;;;;;;2.95;1.88;;;;;;;;;;6245300;22;20028;-76
2024/01/08 00:12:51;;;;;;;6.55;2.28;;;;;;;;;;6246039;22;20020;-77
2024/01/08 00:15:18;;;;;;;7.25;2.15;;;;;;;;;;6245444;22;20035;-77
2024/01/08 00:17:45;;;;;;;6.65;2.40;;;;;;;;;;6245678;22;20012;-76
2024/01/08 00:20:12;;;;;;;6.50;2.42;;;;;;;;;;6245447;22;20074;-76
2024/01/08 00:22:38;;;;;;;6.55;1.92;;;;;;;;;;6246316;22;20022;-77
2024/01/08 00:25:06;;;;;;;4.65;1.85;;;;;;;;;;6245259;22;20342;-75
2024/01/08 00:27:33;;;;;;;5.07;2.00;;;;;;;;;;6246048;22;20023;-77
2024/01/08 00:30:00;;;;;;;3.92;1.88;;;;;;;;;;6246001;22;20023;-76
2024/01/08 00:32:26;;;;;;;5.68;1.90;;;;;;;;;;6245217;22;20102;-77
2024/01/08 00:34:53;;;;;;;11.27;2.40;;;;;;;;;;6245961;22;20016;-77
2024/01/08 00:37:20;;;;;;;8.52;2.28;;;;;;;;;;6245143;22;20020;-76
2024/01/08 00:39:47;;;;;;;8.07;1.83;;;;;;;;;;6245718;22;20368;-76
2024/01/08 00:42:14;;;;;;;6.53;2.05;;;;;;;;;;6245259;22;20066;-77
2024/01/08 00:44:40;;;;;;;4.93;2.40;;;;;;;;;;6245720;22;20024;-76
2024/01/08 00:47:07;;;;;;;6.90;2.10;;;;;;;;;;6244951;22;20546;-77
2024/01/08 00:49:34;;;;;;;9.40;2.30;;;;;;;;;;6245664;22;20022;-77
2024/01/08 00:52:00;;;;;;;7.35;2.30;;;;;;;;;;6244313;23;20382;-76
2024/01/08 00:54:27;;;;;;;7.25;2.30;;;;;;;;;;6245028;22;20019;-77
2024/01/08 00:56:54;;;;;;;7.57;2.10;;;;;;;;;;6245615;22;20102;-77
2024/01/08 00:59:20;;;;;;;6.47;3.22;;;;;;;;;;6245278;22;20016;-76
2024/01/08 01:01:47;;;;;;;10.70;2.40;;;;;;;;;;6245482;22;20382;-77
2024/01/08 01:04:14;;;;;;;7.45;2.20;;;;;;;;;;6245095;22;20016;-76
2024/01/08 01:06:41;;;;;;;4.80;2.20;;;;;;;;;;6245708;22;20016;-77
2024/01/08 01:09:08;;;;;;;5.75;1.90;;;;;;;;;;6244985;22;20012;-77
2024/01/08 01:11:34;;;;;;;8.75;2.00;;;;;;;;;;6245543;22;20027;-76
2024/01/08 01:14:02;;;;;;;6.75;2.30;;;;;;;;;;6245591;22;20020;-76
2024/01/08 01:16:29;;;;;;;9.00;2.22;;;;;;;;;;6245094;22;20038;-76
2024/01/08 01:18:57;;;;;;;3.83;2.00;;;;;;;;;;6245614;22;20024;-76
2024/01/08 01:21:24;;;;;;;7.28;2.13;;;;;;;;;;6245006;22;20016;-76
2024/01/08 01:23:51;;;;;;;6.05;2.40;;;;;;;;;;6245383;22;20020;-76
2024/01/08 01:26:17;;;;;;;6.80;2.33;;;;;;;;;;6244802;22;20016;-77
2024/01/08 01:28:44;;;;;;;8.30;2.58;;;;;;;;;;6246826;22;20016;-76
2024/01/08 01:31:11;;;;;;;5.88;2.30;;;;;;;;;;6246872;22;20348;-76
2024/01/08 01:33:39;;;;;;;10.20;2.63;;;;;;;;;;6247647;22;20050;-77
2024/01/08 01:36:06;;;;;;;9.77;2.60;;;;;;;;;;6247109;22;20038;-76
2024/01/08 01:38:33;;;;;;;5.53;2.28;;;;;;;;;;6247371;22;20023;-77
2024/01/08 01:41:00;;;;;;;6.70;2.45;;;;;;;;;;6247578;22;20070;-77
2024/01/08 01:43:32;;;;;;;7.70;2.35;;;;;;;;;;6247050;22;20325;-77
2024/01/08 01:46:04;;;;;;;6.80;2.50;;;;;;;;;;6247430;22;20024;-76
2024/01/08 01:48:32;;;;;;;7.30;2.45;;;;;;;;;;6246954;22;20024;-76
2024/01/08 01:51:00;;;;;;;8.50;2.60;;;;;;;;;;6247496;22;20074;-76
2024/01/08 01:53:27;;;;;;;5.53;3.00;;;;;;;;;;6247021;22;20449;-76
2024/01/08 01:55:54;;;;;;;8.02;2.90;;;;;;;;;;6247525;22;20042;-76
2024/01/08 01:58:21;;;;;;;8.05;2.85;;;;;;;;;;6245330;22;20024;-77
2024/01/08 02:00:49;;;;;;;8.60;2.90;;;;;;;;;;6247169;22;20042;-76
2024/01/08 02:03:16;;;;;;;5.00;2.90;;;;;;;;;;6246779;22;20445;-76
2024/01/08 02:05:43;;;;;;;7.57;2.70;;;;;;;;;;6247236;22;20027;-76
2024/01/08 02:08:11;;;;;;;7.40;3.00;;;;;;;;;;6246663;22;20017;-77
2024/01/08 02:10:42;;;;;;;4.80;2.40;;;;;;;;;;6247448;22;20028;-77
2024/01/08 02:13:09;;;;;;;5.68;2.45;;;;;;;;;;6245131;22;20020;-77
2024/01/08 02:15:36;;;;;;;4.95;2.20;;;;;;;;;;6247142;22;20020;-77
2024/01/08 02:18:03;;;;;;;7.20;2.65;;;;;;;;;;6247099;22;20012;-76
2024/01/08 02:20:30;;;;;;;12.68;2.72;;;;;;;;;;6246702;22;20335;-77
2024/01/08 02:22:58;;;;;;;4.80;2.58;;;;;;;;;;6247194;22;20016;-77
2024/01/08 02:25:26;;;;;;;6.30;2.33;;;;;;;;;;6246612;22;20035;-76
2024/01/08 02:27:52;;;;;;;4.28;2.70;;;;;;;;;;6247036;22;20477;-77
2024/01/08 02:30:19;;;;;;;6.82;2.33;;;;;;;;;;6246282;22;20095;-77
2024/01/08 02:32:47;;;;;;;6.57;2.20;;;;;;;;;;6247076;22;20016;-76
2024/01/08 02:35:14;;;;;;;6.97;2.85;;;;;;;;;;6246270;22;20022;-76
2024/01/08 02:37:40;;;;;;;9.65;2.60;;;;;;;;;;6246926;22;20016;-77
2024/01/08 02:40:07;;;;;;;11.52;2.40;;;;;;;;;;6246083;22;20022;-76
2024/01/08 02:42:38;;;;;;;4.07;2.47;;;;;;;;;;6247061;22;20330;-77
2024/01/08 02:45:05;;;;;;;6.10;2.78;;;;;;;;;;6246467;22;20020;-76
2024/01/08 02:47:37;;;;;;;11.77;2.70;;;;;;;;;;6247103;22;20032;-76
2024/01/08 02:50:08;;;;;;;8.23;3.10;;;;;;;;;;6246805;22;20012;-76
2024/01/08 02:52:34;;;;;;;7.18;2.90;;;;;;;;;;6246482;22;20023;-76
2024/01/08 02:55:02;;;;;;;6.13;2.30;;;;;;;;;;6246786;22;20508;-76
2024/01/08 02:57:29;;;;;;;6.83;2.77;;;;;;;;;;6246574;22;20307;-77
2024/01/08 02:59:56;;;;;;;5.43;2.65;;;;;;;;;;6246855;22;20091;-76
2024/01/08 03:02:24;;;;;;;6.07;2.90;;;;;;;;;;6245976;22;20016;-77
2024/01/08 03:04:54;;;;;;;8.00;2.60;;;;;;;;;;6246916;22;20020;-76
2024/01/08 03:07:21;;;;;;;6.90;2.90;;;;;;;;;;6246206;22;20026;-76
2024/01/08 03:09:48;;;;;;;3.75;2.28;;;;;;;;;;6246704;22;20023;-76
2024/01/08 03:12:15;;;;;;;7.30;2.30;;;;;;;;;;6244524;22;20040;-77
2024/01/08 03:14:43;;;;;;;5.55;2.38;;;;;;;;;;6246775;22;20020;-77
2024/01/08 03:17:10;;;;;;;8.07;2.65;;;;;;;;;;6245887;22;20074;-77
2024/01/08 03:19:37;;;;;;;4.75;2.50;;;;;;;;;;6246693;22;20089;-76
2024/01/08 03:22:04;;;;;;;8.60;3.13;;;;;;;;;;6246148;22;20027;-76
2024/01/08 03:24:31;;;;;;;7.75;2.50;;;;;;;;;;6246535;22;20035;-77
2024/01/08 03:26:58;;;;;;;8.52;2.97;;;;;;;;;;6246736;22;20437;-76
2024/01/08 03:29:25;;;;;;;5.72;2.38;;;;;;;;;;6245971;22;20043;-77
2024/01/08 03:31:52;;;;;;;6.40;2.72;;;;;;;;;;6246460;22;20059;-77
2024/01/08 03:34:19;;;;;;;9.80;3.30;;;;;;;;;;6245889;22;20039;-77
2024/01/08 03:36:47;;;;;;;7.78;2.92;;;;;;;;;;6246357;22;20026;-76
2024/01/08 03:39:14;;;;;;;5.70;2.80;;;;;;;;;;6245662;22;20013;-77
2024/01/08 03:41:42;;;;;;;11.82;3.40;;;;;;;;;;6246571;22;20016;-77
2024/01/08 03:44:09;;;;;;;5.63;3.03;;;;;;;;;;6244127;22;20016;-77
2024/01/08 03:46:37;;;;;;;7.80;2.90;;;;;;;;;;6246489;22;20039;-77
2024/01/08 03:49:04;;;;;;;7.03;3.03;;;;;;;;;;6245802;22;20020;-75
2024/01/08 03:51:32;;;;;;;6.65;3.25;;;;;;;;;;6245810;22;20016;-77
2024/01/08 03:53:59;;;;;;;8.70;3.50;;;;;;;;;;6246245;22;20020;-77
2024/01/08 03:56:26;;;;;;;6.47;3.35;;;;;;;;;;6245553;22;20016;-76
2024/01/08 03:58:53;;;;;;;8.75;3.20;;;;;;;;;;6246253;22;20024;-77
2024/01/08 04:01:20;;;;;;;10.80;3.75;;;;;;;;;;6245707;22;20016;-77
2024/01/08 04:03:46;;;;;;;14.55;3.45;;;;;;;;;;6246136;22;20106;-76
2024/01/08 04:06:13;;;;;;;6.85;2.97;;;;;;;;;;6245632;22;20072;-77
2024/01/08 04:08:40;;;;;;;10.45;3.25;;;;;;;;;;6246277;22;20967;-76
2024/01/08 04:11:08;;;;;;;11.82;3.38;;;;;;;;;;6245569;22;20019;-77
2024/01/08 04:13:38;;;;;;;9.95;3.40;;;;;;;;;;6246169;22;20020;-77
2024/01/08 04:16:05;;;;;;;9.43;3.60;;;;;;;;;;6245603;22;20016;-77
2024/01/08 04:18:32;;;;;;;5.93;2.85;;;;;;;;;;6245772;22;20079;-77
2024/01/08 04:20:59;;;;;;;7.72;3.78;;;;;;;;;;6245687;22;20016;-77
2024/01/08 04:23:26;;;;;;;5.93;3.22;;;;;;;;;;6245524;22;20026;-77
2024/01/08 04:25:53;;;;;;;6.93;3.38;;;;;;;;;;6245832;22;20024;-76
2024/01/08 04:28:21;;;;;;;6.63;3.28;;;;;;;;;;6245408;22;20372;-77
2024/01/08 04:30:48;;;;;;;7.80;3.30;;;;;;;;;;6246151;22;20016;-76
2024/01/08 04:33:15;;;;;;;7.93;3.33;;;;;;;;;;6245437;22;20357;-76
2024/01/08 04:35:41;;;;;;;9.00;3.65;;;;;;;;;;6246002;22;20016;-76
2024/01/08 04:38:08;;;;;;;7.68;3.55;;;;;;;;;;6245289;22;20095;-77
2024/01/08 04:40:35;;;;;;;7.78;3.65;;;;;;;;;;6245931;22;20023;-77
2024/01/08 04:43:02;;;;;;;9.68;4.13;;;;;;;;;;6245872;22;20040;-77
2024/01/08 04:45:29;;;;;;;9.25;3.80;;;;;;;;;;6245352;22;20099;-76
2024/01/08 04:47:56;;;;;;;8.85;4.07;;;;;;;;;;6245898;22;20376;-77
2024/01/08 04:50:23;;;;;;;9.57;3.63;;;;;;;;;;6244938;22;20016;-76
2024/01/08 04:52:50;;;;;;;9.80;3.45;;;;;;;;;;6245903;22;20020;-77
2024/01/08 04:55:19;;;;;;;15.27;4.05;;;;;;;;;;6245216;22;20012;-77
2024/01/08 04:57:47;;;;;;;11.02;3.42;;;;;;;;;;6245489;22;20441;-77
2024/01/08 05:00:14;;;;;;;11.25;4.47;;;;;;;;;;6245120;22;20085;-77
2024/01/08 05:02:41;;;;;;;11.77;3.28;;;;;;;;;;6245522;22;20092;-76
2024/01/08 05:05:08;;;;;;;10.10;4.28;;;;;;;;;;6245033;22;20062;-77
2024/01/08 05:07:35;;;;;;;15.02;4.05;;;;;;;;;;6245635;22;20095;-77
2024/01/08 05:10:02;;;;;;;12.20;3.72;;;;;;;;;;6245655;22;20020;-76
2024/01/08 05:12:29;;;;;;;12.63;4.13;;;;;;;;;;6245023;22;20406;-77
2024/01/08 05:14:56;;;;;;;10.60;4.22;;;;;;;;;;6245405;22;20027;-77
2024/01/08 05:17:23;;;;;;;10.23;4.28;;;;;;;;;;6244927;22;20016;-77
2024/01/08 05:19:52;;;;;;;10.07;3.45;;;;;;;;;;6245559;22;20016;-77
2024/01/08 05:22:20;;;;;;;13.18;4.22;;;;;;;;;;6244975;22;20016;-77
2024/01/08 05:24:47;;;;;;;12.35;4.05;;;;;;;;;;6245523;22;20437;-76
2024/01/08 05:27:14;;;;;;;9.18;3.97;;;;;;;;;;6244910;22;20020;-76
2024/01/08 05:29:41;;;;;;;14.10;4.68;;;;;;;;;;6245593;22;20024;-77
2024/01/08 05:32:08;;;;;;;13.00;3.70;;;;;;;;;;6245095;22;20016;-77
2024/01/08 05:34:35;;;;;;;10.38;4.10;;;;;;;;;;6245673;22;20020;-77
2024/01/08 05:37:02;;;;;;;8.95;3.75;;;;;;;;;;6244982;22;20091;-77
2024/01/08 05:39:29;;;;;;;10.32;4.45;;;;;;;;;;6245007;22;20095;-77
2024/01/08 05:41:56;;;;;;;17.48;3.92;;;;;;;;;;6245339;22;20023;-77
2024/01/08 05:44:24;;;;;;;;;;;;;;;;;;6243573;22;20028;-77
2024/01/08 05:46:51;;;;;;;9.00;4.28;;;;;;;;;;6242928;22;19916;-77
2024/01/08 05:49:18;;;;;;;11.07;3.90;;;;;;;;;;6244859;22;20012;-77
2024/01/08 05:51:45;;;;;;;8.30;4.13;;;;;;;;;;6245478;22;20016;-77
2024/01/08 05:54:12;;;;;;;9.85;3.97;;;;;;;;;;6244718;22;20040;-77
2024/01/08 05:56:38;;;;;;;14.88;4.95;;;;;;;;;;6245181;22;20303;-77
2024/01/08 05:59:07;;;;;;;10.88;4.20;;;;;;;;;;6244762;22;20441;-77
2024/01/08 06:01:34;;;;;;;11.73;4.40;;;;;;;;;;6244079;22;20445;-77
2024/01/08 06:04:01;;;;;;;9.90;4.60;;;;;;;;;;6241847;23;20012;-77
2024/01/08 06:06:28;;;;;;;10.60;4.10;;;;;;;;;;6242647;22;20050;-77
2024/01/08 06:08:55;;;;;;;10.70;3.90;;;;;;;;;;6244825;22;20016;-77
2024/01/08 06:11:23;;;;;;;22.40;5.28;;;;;;;;;;6244604;22;20039;-76
2024/01/08 06:13:51;;;;;;;19.48;4.78;;;;;;;;;;6244896;22;20020;-77
2024/01/08 06:16:18;;;;;;;11.27;4.18;;;;;;;;;;6246139;22;20345;-77
2024/01/08 06:18:45;;;;;;;14.00;4.90;;;;;;;;;;6247012;22;20012;-77
2024/01/08 06:21:12;;;;;;;10.98;4.43;;;;;;;;;;6246147;22;20445;-76
2024/01/08 06:23:39;;;;;;;12.13;4.78;;;;;;;;;;6245484;23;20016;-77
2024/01/08 06:26:07;;;;;;;16.42;5.50;;;;;;;;;;6246512;22;20020;-77
2024/01/08 06:28:34;;;;;;;14.47;4.80;;;;;;;;;;6247138;22;20092;-77
2024/01/08 06:31:03;;;;;;;15.25;4.78;;;;;;;;;;6246799;22;20012;-77
2024/01/08 06:33:30;;;;;;;13.80;4.78;;;;;;;;;;6245499;22;20012;-77
2024/01/08 06:35:58;;;;;;;18.88;4.30;;;;;;;;;;6245134;22;20016;-77
2024/01/08 06:38:25;;;;;;;8.93;4.40;;;;;;;;;;6242044;22;20074;-77
2024/01/08 06:40:52;;;;;;;12.20;4.70;;;;;;;;;;6244526;22;20440;-77
2024/01/08 06:43:19;;;;;;;12.85;4.38;;;;;;;;;;6242255;22;20020;-77
2024/01/08 06:45:45;;;;;;;18.40;3.92;;;;;;;;;;6243875;22;20024;-77
2024/01/08 06:48:12;;;;;;;11.32;4.00;;;;;;;;;;6243787;22;20016;-77
2024/01/08 06:50:40;;;;;;;14.60;4.40;;;;;;;;;;6244710;22;20079;-76
2024/01/08 06:53:07;;;;;;;17.13;4.72;;;;;;;;;;6246349;22;20018;-77
2024/01/08 06:55:33;;;;;;;11.18;4.03;;;;;;;;;;6246924;22;20012;-76
2024/01/08 06:58:00;;;;;;;13.10;3.80;;;;;;;;;;6246920;22;20130;-76
2024/01/08 07:00:28;;;;;;;15.13;4.45;;;;;;;;;;6246081;22;20020;-76
2024/01/08 07:02:55;;;;;;;20.35;4.38;;;;;;;;;;6246442;22;20448;-77
2024/01/08 07:05:22;;;;;;;14.15;4.10;;;;;;;;;;6246068;22;20019;-76
2024/01/08 07:07:49;;;;;;;10.55;3.55;;;;;;;;;;6246500;22;20464;-77
2024/01/08 07:10:16;;;;;;;15.07;4.85;;;;;;;;;;6246206;22;20429;-77
2024/01/08 07:12:42;;;;;;;23.05;4.35;;;;;;;;;;6246799;22;20352;-76
2024/01/08 07:15:38;;;;;;;13.55;5.38;;;;;;;;;;6245901;22;20038;-77
2024/01/08 07:18:08;;;;;;;10.77;4.20;;;;;;;;;;6245985;22;20020;-76
2024/01/08 07:20:40;;;;;;;15.10;3.80;;;;;;;;;;6246480;22;20042;-76
2024/01/08 07:23:08;;;;;;;13.38;4.25;;;;;;;;;;6245797;22;20081;-78
2024/01/08 07:25:37;;;;;;;16.75;4.60;;;;;;;;;;6245907;22;20453;-79
2024/01/08 07:28:06;;;;;;;19.48;4.40;;;;;;;;;;6245807;22;20039;-77
2024/01/08 07:30:32;;;;;;;12.43;3.95;;;;;;;;;;6245937;22;20429;-77
2024/01/08 07:32:59;;;;;;;11.23;4.22;;;;;;;;;;6244872;22;20012;-77
2024/01/08 07:35:26;;;;;;;12.80;4.03;;;;;;;;;;6246109;22;20298;-76
2024/01/08 07:37:56;;;;;;;18.23;3.78;;;;;;;;;;6247503;22;20020;-76
2024/01/08 07:40:24;;;;;;;13.98;4.00;;;;;;;;;;6249063;22;20042;-77
2024/01/08 07:42:53;;;;;;;11.02;3.92;;;;;;;;;;6251592;22;20449;-76
2024/01/08 07:45:22;;;;;;;8.77;4.22;;;;;;;;;;6245765;22;20024;-76
2024/01/08 07:47:50;;;;;;;10.27;3.75;;;;;;;;;;6244905;22;20016;-77
2024/01/08 07:50:17;;;;;;;11.35;3.53;;;;;;;;;;6243228;22;20095;-77
2024/01/08 07:52:45;;;;;;;11.90;4.22;;;;;;;;;;6244625;22;20094;-77
2024/01/08 07:55:12;;;;;;;15.40;4.28;;;;;;;;;;6245558;22;20497;-76
2024/01/08 07:57:38;;;;;;;23.35;4.50;;;;;;;;;;6245917;22;20425;-76
2024/01/08 08:00:09;;;;;;;14.40;3.90;;;;;;;;;;6244012;22;20016;-74
2024/01/08 08:02:36;;;;;;;13.40;4.28;;;;;;;;;;6245877;22;20038;-76
2024/01/08 08:05:03;;;;;;;12.90;5.13;;;;;;;;;;6241743;22;20013;-76
2024/01/08 08:07:31;;;;;;;16.58;4.45;;;;;;;;;;6244225;22;20240;-77
2024/01/08 08:09:58;;;;;;;11.27;4.30;;;;;;;;;;6243807;22;20027;-77
2024/01/08 08:12:26;;;;;;;11.15;3.63;;;;;;;;;;6244299;22;20039;-76
2024/01/08 08:14:53;;;;;;;19.13;4.28;;;;;;;;;;6268336;22;20012;-77
2024/01/08 08:17:20;;;;;;;11.43;3.72;;;;;;;;;;6243416;22;20024;-77
2024/01/08 08:19:47;;;;;;;11.38;4.32;;;;;;;;;;6245688;22;20455;-76
2024/01/08 08:22:14;;;;;;;13.95;4.07;;;;;;;;;;6245127;22;20047;-77
2024/01/08 08:24:42;;;;;;;13.23;4.18;;;;;;;;;;6245908;22;20020;-77
2024/01/08 08:27:10;;;;;;;12.18;3.75;;;;;;;;;;6245476;22;20336;-76
2024/01/08 08:29:41;;;;;;;12.40;4.35;;;;;;;;;;6246048;22;20016;-77
2024/01/08 08:32:09;;;;;;;11.93;4.20;;;;;;;;;;6245367;22;20019;-76
2024/01/08 08:34:36;;;;;;;12.88;3.92;;;;;;;;;;6246091;22;20032;-77
2024/01/08 08:37:03;;;;;;;10.68;3.60;;;;;;;;;;6245667;22;20032;-77
2024/01/08 08:39:31;;;;;;;13.20;4.10;;;;;;;;;;6245299;22;20020;-77
2024/01/08 08:41:58;;;;;;;12.80;3.85;;;;;;;;;;6245933;22;20023;-77
2024/01/08 08:44:25;;;;;;;10.32;3.95;;;;;;;;;;6244861;22;20020;-77
2024/01/08 08:46:52;;;;;;;13.75;4.60;;;;;;;;;;6245819;22;20062;-77
2024/01/08 08:49:20;;;;;;;13.25;5.28;;;;;;;;;;6245158;22;20359;-77
2024/01/08 08:51:47;;;;;;;16.60;5.97;;;;;;;;;;6245730;22;20020;-77
2024/01/08 08:54:14;;;;;;;13.48;4.90;;;;;;;;;;6245252;22;20012;-76
2024/01/08 08:56:41;;;;;;;12.55;5.15;;;;;;;;;;6245809;22;20027;-77
2024/01/08 08:59:07;;;;;;;16.30;6.65;;;;;;;;;;6244994;22;20358;-77
2024/01/08 09:01:34;;;;;;;12.00;5.65;;;;;;;;;;6245389;22;20012;-77
2024/01/08 09:04:01;;;;;;;10.68;6.07;;;;;;;;;;6245553;22;20460;-77
2024/01/08 09:06:33;;;;;;;14.80;6.63;;;;;;;;;;6244997;22;20023;-77
2024/01/08 09:09:00;;;;;;;22.58;9.70;;;;;;;;;;6245487;22;20016;-77
2024/01/08 09:11:28;;;;;;;13.57;7.47;;;;;;;;;;6243469;22;20020;-77
2024/01/08 09:13:54;;;;;;;13.57;6.70;;;;;;;;;;6245641;22;20024;-77
2024/01/08 09:16:23;;;;;;;14.07;7.18;;;;;;;;;;6244713;22;20026;-77
2024/01/08 09:18:50;;;;;;;12.07;7.00;;;;;;;;;;6245447;22;20023;-77
2024/01/08 09:21:17;;;;;;;13.68;7.53;;;;;;;;;;6244870;22;20013;-77
2024/01/08 09:23:43;;;;;;;11.25;6.68;;;;;;;;;;6245581;22;20039;-77
2024/01/08 09:26:11;;;;;;;9.48;6.80;;;;;;;;;;6244821;22;20325;-76
2024/01/08 09:28:38;;;;;;;11.95;6.47;;;;;;;;;;6245397;22;20023;-77
2024/01/08 09:31:05;;;;;;;11.95;6.60;;;;;;;;;;6244962;22;20058;-76
2024/01/08 09:33:32;;;;;;;8.30;6.35;;;;;;;;;;6245538;22;20016;-77
2024/01/08 09:35:59;;;;;;;8.60;5.88;;;;;;;;;;6245475;22;20016;-77
2024/01/08 09:38:25;;;;;;;9.63;6.35;;;;;;;;;;6244928;22;20047;-77
2024/01/08 09:40:52;;;;;;;7.68;5.55;;;;;;;;;;6245493;22;20019;-76
2024/01/08 09:43:34;;;;;;;7.63;5.45;;;;;;;;;;6245248;22;20023;-77
2024/01/08 09:46:04;;;;;;;8.23;5.35;;;;;;;;;;6245182;22;20020;-77
2024/01/08 09:48:33;;;;;;;7.65;5.60;;;;;;;;;;6245255;22;20024;-77
2024/01/08 09:51:01;;;;;;;5.72;4.47;;;;;;;;;;6247520;22;20020;-77
2024/01/08 09:53:30;;;;;;;8.23;4.97;;;;;;;;;;6246867;22;20302;-77
2024/01/08 09:55:57;;;;;;;6.40;4.28;;;;;;;;;;6247398;22;20020;-77
2024/01/08 09:58:26;;;;;;;5.57;3.95;;;;;;;;;;6246585;22;20353;-77
2024/01/08 10:00:53;;;;;;;5.10;3.60;;;;;;;;;;6247323;22;20020;-77
2024/01/08 10:03:20;;;;;;;6.22;3.63;;;;;;;;;;6246913;22;20016;-77
2024/01/08 10:05:48;;;;;;;6.15;4.00;;;;;;;;;;6247235;22;20027;-77
2024/01/08 10:08:16;;;;;;;7.03;3.97;;;;;;;;;;6246795;22;20023;-77
2024/01/08 10:10:43;;;;;;;6.95;4.43;;;;;;;;;;6247408;22;20094;-77
2024/01/08 10:13:12;;;;;;;9.20;4.30;;;;;;;;;;6246579;22;20031;-77
2024/01/08 10:15:38;;;;;;;7.22;3.85;;;;;;;;;;6247232;22;20029;-77
2024/01/08 10:18:08;;;;;;;5.60;3.97;;;;;;;;;;6246628;22;20020;-76
2024/01/08 10:20:36;;;;;;;7.80;4.22;;;;;;;;;;6246884;22;20380;-77
2024/01/08 10:23:08;;;;;;;6.68;3.88;;;;;;;;;;6247044;22;20024;-77
2024/01/08 10:25:37;;;;;;;5.47;3.70;;;;;;;;;;6246558;22;20020;-77
2024/01/08 10:28:09;;;;;;;7.20;3.88;;;;;;;;;;6246606;22;20066;-76
2024/01/08 10:30:36;;;;;;;5.80;3.38;;;;;;;;;;6247083;22;20394;-77
2024/01/08 10:33:03;;;;;;;6.90;3.40;;;;;;;;;;6247050;22;20333;-77
2024/01/08 10:35:30;;;;;;;11.27;3.67;;;;;;;;;;6245167;22;20370;-77
2024/01/08 10:37:59;;;;;;;7.57;3.55;;;;;;;;;;6246957;22;20012;-77
2024/01/08 10:40:30;;;;;;;7.22;3.40;;;;;;;;;;6246205;22;20128;-77
2024/01/08 10:42:57;;;;;;;7.20;3.22;;;;;;;;;;6247054;22;20016;-77
2024/01/08 10:45:23;;;;;;;6.38;3.33;;;;;;;;;;6246171;22;20016;-76
2024/01/08 10:48:15;;;;;;;9.18;2.95;;;;;;;;;;6246861;22;20016;-77
2024/01/08 10:50:45;;;;;;;5.72;3.40;;;;;;;;;;6246385;22;20082;-77
2024/01/08 10:53:34;;;;;;;6.00;2.72;;;;;;;;;;6246327;22;20095;-77
2024/01/08 10:56:04;;;;;;;;;;;;;;;;;;6247381;22;20009;-77
2024/01/08 10:58:37;;;;;;;10.70;2.70;;;;;;;;;;6246243;22;19916;-77
2024/01/08 11:01:07;;;;;;;10.10;2.92;;;;;;;;;;6246098;22;20046;-75
2024/01/08 11:03:35;;;;;;;9.57;3.65;;;;;;;;;;6246819;22;20012;-77
2024/01/08 11:06:03;;;;;;;8.75;3.22;;;;;;;;;;6246858;22;20023;-76
2024/01/08 11:08:32;;;;;;;5.55;2.83;;;;;;;;;;6246416;22;20467;-77
2024/01/08 11:11:08;;;;;;;7.53;3.28;;;;;;;;;;6246645;22;20016;-77
2024/01/08 11:13:38;;;;;;;6.03;2.67;;;;;;;;;;6246409;22;20018;-77
2024/01/08 11:16:06;;;;;;;6.57;2.60;;;;;;;;;;6246094;22;20038;-77
2024/01/08 11:18:33;;;;;;;5.82;2.88;;;;;;;;;;6246647;22;20050;-77
2024/01/08 11:21:01;;;;;;;5.82;2.70;;;;;;;;;;6246578;22;20020;-77
2024/01/08 11:23:39;;;;;;;6.30;2.63;;;;;;;;;;6246151;22;20016;-77
2024/01/08 11:26:21;;;;;;;5.85;2.72;;;;;;;;;;6246041;22;20031;-77
2024/01/08 11:29:05;;;;;;;5.15;2.75;;;;;;;;;;6246503;22;20070;-77
2024/01/08 11:31:47;;;;;;;5.95;2.83;;;;;;;;;;6246015;22;20034;-77
2024/01/08 11:34:49;;;;;;;8.90;2.67;;;;;;;;;;6245816;22;20487;-77
2024/01/08 11:37:29;;;;;;;7.13;2.70;;;;;;;;;;6245858;22;20016;-77
2024/01/08 11:39:56;;;;;;;6.78;2.55;;;;;;;;;;6246488;22;20019;-77
2024/01/08 11:42:23;;;;;;;7.57;2.35;;;;;;;;;;6246270;22;20442;-77
2024/01/08 11:44:51;;;;;;;7.68;2.50;;;;;;;;;;6251662;22;20020;-77
2024/01/08 11:47:18;;;;;;;4.60;2.22;;;;;;;;;;6252192;22;20035;-76
2024/01/08 11:49:48;;;;;;;3.95;2.42;;;;;;;;;;6250297;22;20015;-77
2024/01/08 11:52:16;;;;;;;5.85;2.70;;;;;;;;;;6245705;22;20016;-77
2024/01/08 11:54:48;;;;;;;4.03;2.30;;;;;;;;;;6246295;22;20021;-76
2024/01/08 11:57:17;;;;;;;6.70;2.50;;;;;;;;;;6244207;22;20086;-77
2024/01/08 11:59:44;;;;;;;5.57;2.63;;;;;;;;;;6244483;23;20083;-77
2024/01/08 12:02:28;;;;;;;5.65;2.28;;;;;;;;;;6245606;22;20070;-77
2024/01/08 12:04:59;;;;;;;8.38;2.30;;;;;;;;;;6246253;22;20087;-77
2024/01/08 12:07:27;;;;;;;9.05;2.38;;;;;;;;;;6245615;22;20020;-77
2024/01/08 12:09:57;;;;;;;7.73;2.73;;;;;;;;;;6245512;22;20381;-80
2024/01/08 12:12:25;;;;;;;6.78;2.33;;;;;;;;;;6243291;22;20035;-82
2024/01/08 12:14:53;;;;;;;7.28;2.35;;;;;;;;;;6244564;23;20020;-77
2024/01/08 12:17:20;;;;;;;5.43;2.30;;;;;;;;;;6245521;22;20091;-78
2024/01/08 12:19:49;;;;;;;6.18;2.22;;;;;;;;;;6245908;22;20464;-77
2024/01/08 12:22:17;;;;;;;;;;;;;;;;;;6246057;22;20022;-78
2024/01/08 12:24:46;;;;;;;6.82;2.50;;;;;;;;;;6245945;22;20375;-77
2024/01/08 12:27:15;;;;;;;7.70;3.08;;;;;;;;;;6245281;22;20523;-77
2024/01/08 12:29:43;;;;;;;4.82;2.17;;;;;;;;;;6245975;22;20044;-77
2024/01/08 12:32:15;;;;;;;4.50;2.17;;;;;;;;;;6245483;22;20012;-77
2024/01/08 12:34:43;;;;;;;5.35;2.03;;;;;;;;;;6246135;22;20074;-77
2024/01/08 12:37:13;;;;;;;5.00;2.10;;;;;;;;;;6243630;22;20012;-77
2024/01/08 12:39:40;;;;;;;6.72;2.20;;;;;;;;;;6244302;23;20036;-78
2024/01/08 12:42:09;;;;;;;3.75;2.00;;;;;;;;;;6245347;22;20039;-77
2024/01/08 12:44:36;;;;;;;7.13;2.45;;;;;;;;;;6245714;22;20044;-78
2024/01/08 12:47:05;;;;;;;8.65;2.22;;;;;;;;;;6245286;22;20023;-76
2024/01/08 12:49:32;;;;;;;5.00;2.03;;;;;;;;;;6245865;22;20016;-78
2024/01/08 12:52:00;;;;;;;9.02;2.20;;;;;;;;;;6245780;22;20016;-78
2024/01/08 12:54:29;;;;;;;5.78;1.95;;;;;;;;;;6245087;22;20027;-78
2024/01/08 12:56:57;;;;;;;5.65;2.10;;;;;;;;;;6245737;22;20330;-78
2024/01/08 12:59:28;;;;;;;9.70;3.13;;;;;;;;;;6245195;22;20104;-77
2024/01/08 13:01:54;;;;;;;25.38;8.82;;;;;;;;;;6245511;22;20008;-77
2024/01/08 13:04:22;;;;;;;15.05;5.97;;;;;;;;;;6244930;22;20456;-78
2024/01/08 13:06:49;;;;;;;6.85;2.55;;;;;;;;;;6245300;22;20024;-77
2024/01/08 13:09:16;;;;;;;7.43;3.47;;;;;;;;;;6245163;22;20024;-77
2024/01/08 13:11:43;;;;;;;5.70;2.60;;;;;;;;;;6245599;22;20023;-77
2024/01/08 13:14:12;;;;;;;7.38;2.20;;;;;;;;;;6245142;22;20016;-78
2024/01/08 13:16:42;;;;;;;12.57;2.80;;;;;;;;;;6245742;22;20024;-77
2024/01/08 13:19:10;;;;;;;11.90;2.70;;;;;;;;;;6243488;22;20020;-77
2024/01/08 13:21:40;;;;;;;9.60;2.10;;;;;;;;;;6245555;22;20020;-78
2024/01/08 13:24:11;;;;;;;16.13;4.05;;;;;;;;;;6245043;22;20031;-77
2024/01/08 13:26:38;;;;;;;7.30;2.17;;;;;;;;;;6245549;22;20463;-78
2024/01/08 13:29:06;;;;;;;8.40;2.35;;;;;;;;;;6245124;22;20012;-76
2024/01/08 13:31:38;;;;;;;14.50;2.95;;;;;;;;;;6245534;22;20317;-78
2024/01/08 13:34:07;;;;;;;6.82;2.50;;;;;;;;;;6245035;22;20091;-77
2024/01/08 13:36:38;;;;;;;4.60;2.10;;;;;;;;;;6245493;22;20040;-78
2024/01/08 13:39:08;;;;;;;10.10;3.13;;;;;;;;;;6244898;22;20016;-76
2024/01/08 13:41:37;;;;;;;5.18;1.60;;;;;;;;;;6245540;22;20046;-78
2024/01/08 13:44:05;;;;;;;9.40;2.40;;;;;;;;;;6244948;22;20074;-76
2024/01/08 13:46:33;;;;;;;4.88;2.03;;;;;;;;;;6245299;22;20016;-78
2024/01/08 13:49:01;;;;;;;9.02;2.10;;;;;;;;;;6245361;22;20502;-77
2024/01/08 13:51:28;;;;;;;7.18;2.03;;;;;;;;;;6244919;22;20020;-77
2024/01/08 13:53:55;;;;;;;6.82;1.98;;;;;;;;;;6245445;22;20091;-77
2024/01/08 13:56:22;;;;;;;5.85;1.95;;;;;;;;;;6244808;22;20091;-77
2024/01/08 13:58:49;;;;;;;5.68;2.20;;;;;;;;;;6243883;23;20016;-76
2024/01/08 14:01:17;;;;;;;5.28;2.25;;;;;;;;;;6244827;22;20016;-78
2024/01/08 14:03:44;;;;;;;6.35;2.10;;;;;;;;;;6245369;22;20016;-77
2024/01/08 14:06:12;;;;;;;4.85;2.40;;;;;;;;;;6245005;22;20437;-77
2024/01/08 14:08:40;;;;;;;6.10;2.00;;;;;;;;;;6245497;22;20016;-77
2024/01/08 14:11:08;;;;;;;8.98;1.90;;;;;;;;;;6244945;22;20016;-77
2024/01/08 14:13:35;;;;;;;5.15;2.10;;;;;;;;;;6245508;22;20047;-76
2024/01/08 14:16:02;;;;;;;5.53;2.28;;;;;;;;;;6245351;22;20036;-77
2024/01/08 14:18:30;;;;;;;5.65;2.78;;;;;;;;;;6245235;22;20024;-77
2024/01/08 14:20:57;;;;;;;6.10;2.20;;;;;;;;;;6245111;22;20441;-78
2024/01/08 14:23:24;;;;;;;12.60;2.20;;;;;;;;;;6244823;22;20028;-77
2024/01/08 14:25:52;;;;;;;6.18;2.30;;;;;;;;;;6245410;22;20388;-76
2024/01/08 14:28:19;;;;;;;8.80;2.37;;;;;;;;;;6244652;22;20459;-77
2024/01/08 14:30:46;;;;;;;13.07;2.80;;;;;;;;;;6245202;22;20356;-77
2024/01/08 14:33:13;;;;;;;8.48;2.42;;;;;;;;;;6244725;22;20020;-78
2024/01/08 14:35:40;;;;;;;5.57;1.90;;;;;;;;;;6245757;22;20368;-77
2024/01/08 14:38:07;;;;;;;6.85;2.72;;;;;;;;;;6246817;22;20048;-77
2024/01/08 14:40:36;;;;;;;7.53;2.50;;;;;;;;;;6246823;22;20008;-77
2024/01/08 14:43:08;;;;;;;8.48;2.20;;;;;;;;;;6247147;22;20070;-77